sensor_id;sensor_type;location;lat;lon;timestamp;P1;durP1;ratioP1;P2;durP2;ratioP2
13222;SDS011;6676;45.192;5.722;2023-02-28T00:02:50;7.40;;;5.50;;
13222;SDS011;6676;45.192;5.722;2023-02-28T00:05:42;9.53;;;6.33;;
13222;SDS011;6676;45.192;5.722;2023-02-28T00:08:33;8.35;;;6.10;;
13222;SDS011;6676;45.192;5.722;2023-02-28T00:11:24;7.25;;;5.47;;
13222;SDS011;6676;45.192;5.722;2023-02-28T00:14:34;7.78;;;5.33;;
13222;SDS011;6676;45.192;5.722;2023-02-28T00:17:25;5.58;;;4.95;;
13222;SDS011;6676;45.192;5.722;2023-02-28T00:20:17;6.67;;;5.22;;
13222;SDS011;6676;45.192;5.722;2023-02-28T00:23:09;7.22;;;5.50;;
13222;SDS011;6676;45.192;5.722;2023-02-28T00:26:01;6.72;;;5.72;;
13222;SDS011;6676;45.192;5.722;2023-02-28T00:28:53;6.95;;;5.22;;
13222;SDS011;6676;45.192;5.722;2023-02-28T00:31:45;6.40;;;5.80;;
13222;SDS011;6676;45.192;5.722;2023-02-28T00:34:36;6.62;;;5.50;;
13222;SDS011;6676;45.192;5.722;2023-02-28T00:37:45;6.62;;;5.47;;
13222;SDS011;6676;45.192;5.722;2023-02-28T00:40:39;6.87;;;5.03;;
13222;SDS011;6676;45.192;5.722;2023-02-28T00:43:32;6.17;;;5.55;;
13222;SDS011;6676;45.192;5.722;2023-02-28T00:46:24;8.35;;;5.83;;
13222;SDS011;6676;45.192;5.722;2023-02-28T00:49:17;8.20;;;5.92;;
13222;SDS011;6676;45.192;5.722;2023-02-28T00:52:09;5.97;;;5.30;;
13222;SDS011;6676;45.192;5.722;2023-02-28T00:55:01;6.67;;;5.78;;
13222;SDS011;6676;45.192;5.722;2023-02-28T00:57:58;6.85;;;5.67;;
13222;SDS011;6676;45.192;5.722;2023-02-28T01:00:49;8.00;;;6.20;;
13222;SDS011;6676;45.192;5.722;2023-02-28T01:03:44;6.58;;;5.72;;
13222;SDS011;6676;45.192;5.722;2023-02-28T01:06:36;7.33;;;5.95;;
13222;SDS011;6676;45.192;5.722;2023-02-28T01:09:30;7.03;;;5.80;;
13222;SDS011;6676;45.192;5.722;2023-02-28T01:12:21;6.80;;;6.10;;
13222;SDS011;6676;45.192;5.722;2023-02-28T01:15:13;6.30;;;5.70;;
13222;SDS011;6676;45.192;5.722;2023-02-28T01:18:05;7.50;;;6.05;;
13222;SDS011;6676;45.192;5.722;2023-02-28T01:20:57;7.03;;;6.33;;
13222;SDS011;6676;45.192;5.722;2023-02-28T01:23:50;6.80;;;5.72;;
13222;SDS011;6676;45.192;5.722;2023-02-28T01:26:43;6.45;;;5.83;;
13222;SDS011;6676;45.192;5.722;2023-02-28T01:29:35;7.80;;;6.33;;
13222;SDS011;6676;45.192;5.722;2023-02-28T01:32:27;7.03;;;5.75;;
13222;SDS011;6676;45.192;5.722;2023-02-28T01:35:19;7.37;;;5.85;;
13222;SDS011;6676;45.192;5.722;2023-02-28T01:38:11;8.00;;;6.10;;
13222;SDS011;6676;45.192;5.722;2023-02-28T01:41:04;7.30;;;6.30;;
13222;SDS011;6676;45.192;5.722;2023-02-28T01:44:02;7.30;;;6.08;;
13222;SDS011;6676;45.192;5.722;2023-02-28T01:46:54;6.35;;;5.70;;
13222;SDS011;6676;45.192;5.722;2023-02-28T01:49:46;7.35;;;6.60;;
13222;SDS011;6676;45.192;5.722;2023-02-28T01:52:38;6.97;;;5.95;;
13222;SDS011;6676;45.192;5.722;2023-02-28T01:55:30;7.37;;;6.00;;
13222;SDS011;6676;45.192;5.722;2023-02-28T01:58:11;6.70;;;5.90;;
13222;SDS011;6676;45.192;5.722;2023-02-28T02:01:03;6.85;;;5.67;;
13222;SDS011;6676;45.192;5.722;2023-02-28T02:03:55;8.63;;;6.42;;
13222;SDS011;6676;45.192;5.722;2023-02-28T02:06:48;7.42;;;6.47;;
13222;SDS011;6676;45.192;5.722;2023-02-28T02:09:41;7.70;;;6.55;;
13222;SDS011;6676;45.192;5.722;2023-02-28T02:12:37;8.80;;;7.05;;
13222;SDS011;6676;45.192;5.722;2023-02-28T02:15:34;7.70;;;6.30;;
13222;SDS011;6676;45.192;5.722;2023-02-28T02:18:30;7.25;;;6.20;;
13222;SDS011;6676;45.192;5.722;2023-02-28T02:21:16;7.85;;;6.30;;
13222;SDS011;6676;45.192;5.722;2023-02-28T02:31:15;8.33;;;6.85;;
13222;SDS011;6676;45.192;5.722;2023-02-28T02:34:42;7.97;;;6.80;;
13222;SDS011;6676;45.192;5.722;2023-02-28T02:37:40;7.53;;;6.08;;
13222;SDS011;6676;45.192;5.722;2023-02-28T02:40:35;8.05;;;6.17;;
13222;SDS011;6676;45.192;5.722;2023-02-28T02:43:32;7.40;;;6.53;;
13222;SDS011;6676;45.192;5.722;2023-02-28T02:46:26;9.25;;;6.20;;
13222;SDS011;6676;45.192;5.722;2023-02-28T02:49:20;7.17;;;6.25;;
13222;SDS011;6676;45.192;5.722;2023-02-28T02:52:15;6.92;;;6.28;;
13222;SDS011;6676;45.192;5.722;2023-02-28T02:55:13;8.30;;;6.60;;
13222;SDS011;6676;45.192;5.722;2023-02-28T02:58:01;7.85;;;6.22;;
13222;SDS011;6676;45.192;5.722;2023-02-28T03:00:55;8.28;;;6.95;;
13222;SDS011;6676;45.192;5.722;2023-02-28T03:03:51;7.62;;;6.50;;
13222;SDS011;6676;45.192;5.722;2023-02-28T03:06:42;7.08;;;6.25;;
13222;SDS011;6676;45.192;5.722;2023-02-28T03:09:34;7.60;;;6.42;;
13222;SDS011;6676;45.192;5.722;2023-02-28T03:12:33;6.80;;;6.10;;
13222;SDS011;6676;45.192;5.722;2023-02-28T03:15:24;7.85;;;7.05;;
13222;SDS011;6676;45.192;5.722;2023-02-28T03:18:19;8.85;;;6.58;;
13222;SDS011;6676;45.192;5.722;2023-02-28T03:21:14;7.70;;;6.72;;
13222;SDS011;6676;45.192;5.722;2023-02-28T03:23:57;8.33;;;6.58;;
13222;SDS011;6676;45.192;5.722;2023-02-28T03:26:54;7.53;;;6.78;;
13222;SDS011;6676;45.192;5.722;2023-02-28T03:29:50;7.62;;;6.65;;
13222;SDS011;6676;45.192;5.722;2023-02-28T03:32:45;7.58;;;6.78;;
13222;SDS011;6676;45.192;5.722;2023-02-28T03:35:25;7.75;;;6.85;;
13222;SDS011;6676;45.192;5.722;2023-02-28T03:38:22;7.15;;;6.45;;
13222;SDS011;6676;45.192;5.722;2023-02-28T03:41:15;7.72;;;6.78;;
13222;SDS011;6676;45.192;5.722;2023-02-28T03:44:10;7.70;;;6.90;;
13222;SDS011;6676;45.192;5.722;2023-02-28T03:47:04;7.87;;;6.30;;
13222;SDS011;6676;45.192;5.722;2023-02-28T03:50:00;7.60;;;6.80;;
13222;SDS011;6676;45.192;5.722;2023-02-28T03:52:58;7.97;;;7.15;;
13222;SDS011;6676;45.192;5.722;2023-02-28T03:55:53;8.25;;;7.42;;
13222;SDS011;6676;45.192;5.722;2023-02-28T03:58:49;7.47;;;6.67;;
13222;SDS011;6676;45.192;5.722;2023-02-28T04:01:45;8.33;;;6.45;;
13222;SDS011;6676;45.192;5.722;2023-02-28T04:04:38;8.95;;;7.12;;
13222;SDS011;6676;45.192;5.722;2023-02-28T04:07:32;9.18;;;7.70;;
13222;SDS011;6676;45.192;5.722;2023-02-28T04:10:23;7.58;;;6.80;;
13222;SDS011;6676;45.192;5.722;2023-02-28T04:13:15;8.48;;;7.33;;
13222;SDS011;6676;45.192;5.722;2023-02-28T04:16:07;9.40;;;7.65;;
13222;SDS011;6676;45.192;5.722;2023-02-28T04:19:02;7.33;;;6.53;;
13222;SDS011;6676;45.192;5.722;2023-02-28T04:21:54;8.30;;;7.25;;
13222;SDS011;6676;45.192;5.722;2023-02-28T04:24:46;8.80;;;6.97;;
13222;SDS011;6676;45.192;5.722;2023-02-28T04:27:38;7.92;;;7.10;;
13222;SDS011;6676;45.192;5.722;2023-02-28T04:30:29;8.70;;;7.80;;
13222;SDS011;6676;45.192;5.722;2023-02-28T04:33:21;7.80;;;7.00;;
13222;SDS011;6676;45.192;5.722;2023-02-28T04:36:13;8.25;;;7.17;;
13222;SDS011;6676;45.192;5.722;2023-02-28T04:39:06;8.68;;;7.45;;
13222;SDS011;6676;45.192;5.722;2023-02-28T04:41:58;8.83;;;7.40;;
13222;SDS011;6676;45.192;5.722;2023-02-28T04:44:49;7.47;;;6.60;;
13222;SDS011;6676;45.192;5.722;2023-02-28T04:47:41;8.10;;;7.12;;
13222;SDS011;6676;45.192;5.722;2023-02-28T04:50:32;7.90;;;6.70;;
13222;SDS011;6676;45.192;5.722;2023-02-28T04:53:23;9.38;;;7.20;;
13222;SDS011;6676;45.192;5.722;2023-02-28T04:56:16;7.42;;;6.55;;
13222;SDS011;6676;45.192;5.722;2023-02-28T04:59:08;8.03;;;7.15;;
13222;SDS011;6676;45.192;5.722;2023-02-28T05:01:59;9.08;;;7.08;;
13222;SDS011;6676;45.192;5.722;2023-02-28T05:04:53;9.35;;;7.62;;
13222;SDS011;6676;45.192;5.722;2023-02-28T05:07:46;9.30;;;7.20;;
13222;SDS011;6676;45.192;5.722;2023-02-28T05:10:38;8.50;;;7.33;;
13222;SDS011;6676;45.192;5.722;2023-02-28T05:13:29;8.70;;;7.70;;
13222;SDS011;6676;45.192;5.722;2023-02-28T05:16:22;8.35;;;7.45;;
13222;SDS011;6676;45.192;5.722;2023-02-28T05:19:13;10.35;;;7.53;;
13222;SDS011;6676;45.192;5.722;2023-02-28T05:22:11;8.15;;;7.10;;
13222;SDS011;6676;45.192;5.722;2023-02-28T05:25:04;9.33;;;7.47;;
13222;SDS011;6676;45.192;5.722;2023-02-28T05:27:56;12.33;;;7.50;;
13222;SDS011;6676;45.192;5.722;2023-02-28T05:30:48;9.45;;;7.25;;
13222;SDS011;6676;45.192;5.722;2023-02-28T05:33:40;9.08;;;7.00;;
13222;SDS011;6676;45.192;5.722;2023-02-28T05:36:32;9.33;;;7.55;;
13222;SDS011;6676;45.192;5.722;2023-02-28T05:39:25;8.13;;;6.92;;
13222;SDS011;6676;45.192;5.722;2023-02-28T05:42:16;9.18;;;7.25;;
13222;SDS011;6676;45.192;5.722;2023-02-28T05:45:08;8.70;;;7.05;;
13222;SDS011;6676;45.192;5.722;2023-02-28T05:48:02;9.63;;;7.25;;
13222;SDS011;6676;45.192;5.722;2023-02-28T05:50:54;8.70;;;7.20;;
13222;SDS011;6676;45.192;5.722;2023-02-28T05:53:46;9.80;;;7.65;;
13222;SDS011;6676;45.192;5.722;2023-02-28T05:56:38;9.08;;;7.33;;
13222;SDS011;6676;45.192;5.722;2023-02-28T05:59:31;9.08;;;7.37;;
13222;SDS011;6676;45.192;5.722;2023-02-28T06:02:22;8.45;;;7.22;;
13222;SDS011;6676;45.192;5.722;2023-02-28T06:05:14;8.93;;;7.30;;
13222;SDS011;6676;45.192;5.722;2023-02-28T06:08:07;9.45;;;6.90;;
13222;SDS011;6676;45.192;5.722;2023-02-28T06:10:59;10.25;;;7.08;;
13222;SDS011;6676;45.192;5.722;2023-02-28T06:13:54;10.25;;;7.15;;
13222;SDS011;6676;45.192;5.722;2023-02-28T06:16:47;9.50;;;7.50;;
13222;SDS011;6676;45.192;5.722;2023-02-28T06:19:39;8.58;;;7.20;;
13222;SDS011;6676;45.192;5.722;2023-02-28T06:22:30;9.40;;;7.62;;
13222;SDS011;6676;45.192;5.722;2023-02-28T06:25:22;9.28;;;7.17;;
13222;SDS011;6676;45.192;5.722;2023-02-28T06:28:14;9.10;;;7.37;;
13222;SDS011;6676;45.192;5.722;2023-02-28T06:31:07;12.15;;;7.78;;
13222;SDS011;6676;45.192;5.722;2023-02-28T06:34:00;8.83;;;7.20;;
13222;SDS011;6676;45.192;5.722;2023-02-28T06:36:51;8.05;;;7.05;;
13222;SDS011;6676;45.192;5.722;2023-02-28T06:39:43;12.60;;;8.23;;
13222;SDS011;6676;45.192;5.722;2023-02-28T06:42:34;8.03;;;7.15;;
13222;SDS011;6676;45.192;5.722;2023-02-28T06:45:27;11.43;;;7.37;;
13222;SDS011;6676;45.192;5.722;2023-02-28T06:48:19;9.20;;;7.35;;
13222;SDS011;6676;45.192;5.722;2023-02-28T06:51:12;8.90;;;7.33;;
13222;SDS011;6676;45.192;5.722;2023-02-28T06:54:05;8.93;;;7.15;;
13222;SDS011;6676;45.192;5.722;2023-02-28T06:56:58;8.65;;;6.30;;
13222;SDS011;6676;45.192;5.722;2023-02-28T06:59:50;9.80;;;7.47;;
13222;SDS011;6676;45.192;5.722;2023-02-28T07:02:42;9.98;;;7.80;;
13222;SDS011;6676;45.192;5.722;2023-02-28T07:05:35;8.25;;;6.83;;
13222;SDS011;6676;45.192;5.722;2023-02-28T07:08:27;10.13;;;7.03;;
13222;SDS011;6676;45.192;5.722;2023-02-28T07:11:20;9.33;;;7.33;;
13222;SDS011;6676;45.192;5.722;2023-02-28T07:14:14;9.38;;;7.37;;
13222;SDS011;6676;45.192;5.722;2023-02-28T07:17:07;13.00;;;7.20;;
13222;SDS011;6676;45.192;5.722;2023-02-28T07:20:00;9.68;;;7.50;;
13222;SDS011;6676;45.192;5.722;2023-02-28T07:22:53;11.53;;;7.17;;
13222;SDS011;6676;45.192;5.722;2023-02-28T07:25:45;9.68;;;7.83;;
13222;SDS011;6676;45.192;5.722;2023-02-28T07:28:37;10.72;;;7.85;;
13222;SDS011;6676;45.192;5.722;2023-02-28T07:31:28;10.05;;;7.67;;
13222;SDS011;6676;45.192;5.722;2023-02-28T07:34:20;8.58;;;7.28;;
13222;SDS011;6676;45.192;5.722;2023-02-28T07:37:12;8.50;;;6.58;;
13222;SDS011;6676;45.192;5.722;2023-02-28T07:40:06;9.35;;;7.00;;
13222;SDS011;6676;45.192;5.722;2023-02-28T07:43:00;8.53;;;7.08;;
13222;SDS011;6676;45.192;5.722;2023-02-28T07:45:53;8.25;;;6.95;;
13222;SDS011;6676;45.192;5.722;2023-02-28T07:48:45;9.78;;;7.08;;
13222;SDS011;6676;45.192;5.722;2023-02-28T07:51:36;12.10;;;7.25;;
13222;SDS011;6676;45.192;5.722;2023-02-28T07:54:29;9.48;;;6.97;;
13222;SDS011;6676;45.192;5.722;2023-02-28T07:57:21;10.10;;;7.08;;
13222;SDS011;6676;45.192;5.722;2023-02-28T08:00:14;9.70;;;6.85;;
13222;SDS011;6676;45.192;5.722;2023-02-28T08:03:07;7.97;;;6.70;;
13222;SDS011;6676;45.192;5.722;2023-02-28T08:06:01;7.90;;;6.30;;
13222;SDS011;6676;45.192;5.722;2023-02-28T08:08:53;8.85;;;6.45;;
13222;SDS011;6676;45.192;5.722;2023-02-28T08:11:47;7.47;;;6.62;;
13222;SDS011;6676;45.192;5.722;2023-02-28T08:14:39;9.40;;;7.10;;
13222;SDS011;6676;45.192;5.722;2023-02-28T08:17:31;8.50;;;6.87;;
13222;SDS011;6676;45.192;5.722;2023-02-28T08:20:23;8.73;;;6.83;;
13222;SDS011;6676;45.192;5.722;2023-02-28T08:23:16;9.58;;;7.17;;
13222;SDS011;6676;45.192;5.722;2023-02-28T08:26:07;8.55;;;6.92;;
13222;SDS011;6676;45.192;5.722;2023-02-28T08:28:59;10.45;;;7.58;;
13222;SDS011;6676;45.192;5.722;2023-02-28T08:32:14;10.53;;;7.53;;
13222;SDS011;6676;45.192;5.722;2023-02-28T08:35:17;10.70;;;7.42;;
13222;SDS011;6676;45.192;5.722;2023-02-28T08:38:10;10.65;;;7.45;;
13222;SDS011;6676;45.192;5.722;2023-02-28T08:41:00;7.80;;;6.70;;
13222;SDS011;6676;45.192;5.722;2023-02-28T08:43:56;8.58;;;6.72;;
13222;SDS011;6676;45.192;5.722;2023-02-28T08:46:52;8.85;;;7.45;;
13222;SDS011;6676;45.192;5.722;2023-02-28T08:49:43;9.48;;;7.42;;
13222;SDS011;6676;45.192;5.722;2023-02-28T08:52:42;8.93;;;7.40;;
13222;SDS011;6676;45.192;5.722;2023-02-28T08:55:43;10.60;;;7.35;;
13222;SDS011;6676;45.192;5.722;2023-02-28T08:58:35;9.23;;;7.05;;
13222;SDS011;6676;45.192;5.722;2023-02-28T09:01:27;9.18;;;7.40;;
13222;SDS011;6676;45.192;5.722;2023-02-28T09:04:20;9.28;;;7.45;;
13222;SDS011;6676;45.192;5.722;2023-02-28T09:07:13;9.43;;;7.90;;
13222;SDS011;6676;45.192;5.722;2023-02-28T09:10:07;12.05;;;8.88;;
13222;SDS011;6676;45.192;5.722;2023-02-28T09:13:00;9.73;;;8.73;;
13222;SDS011;6676;45.192;5.722;2023-02-28T09:15:52;9.10;;;8.15;;
13222;SDS011;6676;45.192;5.722;2023-02-28T09:18:46;10.75;;;8.23;;
13222;SDS011;6676;45.192;5.722;2023-02-28T09:21:37;9.35;;;8.43;;
13222;SDS011;6676;45.192;5.722;2023-02-28T09:24:33;10.20;;;7.85;;
13222;SDS011;6676;45.192;5.722;2023-02-28T09:27:26;9.13;;;8.23;;
13222;SDS011;6676;45.192;5.722;2023-02-28T09:30:18;11.57;;;8.28;;
13222;SDS011;6676;45.192;5.722;2023-02-28T09:33:10;9.30;;;8.10;;
13222;SDS011;6676;45.192;5.722;2023-02-28T09:36:02;9.93;;;8.00;;
13222;SDS011;6676;45.192;5.722;2023-02-28T09:38:55;10.55;;;7.85;;
13222;SDS011;6676;45.192;5.722;2023-02-28T09:41:47;9.38;;;8.28;;
13222;SDS011;6676;45.192;5.722;2023-02-28T09:44:41;9.80;;;8.38;;
13222;SDS011;6676;45.192;5.722;2023-02-28T09:47:36;9.90;;;8.40;;
13222;SDS011;6676;45.192;5.722;2023-02-28T09:50:32;10.35;;;8.23;;
13222;SDS011;6676;45.192;5.722;2023-02-28T09:53:32;9.75;;;8.10;;
13222;SDS011;6676;45.192;5.722;2023-02-28T09:56:53;12.85;;;8.70;;
13222;SDS011;6676;45.192;5.722;2023-02-28T09:59:59;10.68;;;8.68;;
13222;SDS011;6676;45.192;5.722;2023-02-28T10:03:19;10.98;;;9.10;;
13222;SDS011;6676;45.192;5.722;2023-02-28T10:06:17;11.97;;;8.83;;
13222;SDS011;6676;45.192;5.722;2023-02-28T10:09:11;9.18;;;8.13;;
13222;SDS011;6676;45.192;5.722;2023-02-28T10:12:15;8.73;;;7.83;;
13222;SDS011;6676;45.192;5.722;2023-02-28T10:15:09;9.00;;;8.10;;
13222;SDS011;6676;45.192;5.722;2023-02-28T10:18:24;11.15;;;10.05;;
13222;SDS011;6676;45.192;5.722;2023-02-28T10:21:20;9.80;;;8.80;;
13222;SDS011;6676;45.192;5.722;2023-02-28T10:24:21;10.15;;;8.80;;
13222;SDS011;6676;45.192;5.722;2023-02-28T10:27:17;11.48;;;8.20;;
13222;SDS011;6676;45.192;5.722;2023-02-28T10:30:30;10.95;;;8.53;;
13222;SDS011;6676;45.192;5.722;2023-02-28T10:33:23;11.20;;;8.33;;
13222;SDS011;6676;45.192;5.722;2023-02-28T10:36:18;9.13;;;8.08;;
13222;SDS011;6676;45.192;5.722;2023-02-28T10:43:04;9.03;;;8.08;;
13222;SDS011;6676;45.192;5.722;2023-02-28T10:45:59;9.65;;;8.60;;
13222;SDS011;6676;45.192;5.722;2023-02-28T10:49:05;13.05;;;9.43;;
13222;SDS011;6676;45.192;5.722;2023-02-28T10:52:03;9.78;;;8.78;;
13222;SDS011;6676;45.192;5.722;2023-02-28T10:55:07;10.95;;;9.50;;
13222;SDS011;6676;45.192;5.722;2023-02-28T10:58:21;12.13;;;9.30;;
13222;SDS011;6676;45.192;5.722;2023-02-28T11:01:16;10.38;;;9.18;;
13222;SDS011;6676;45.192;5.722;2023-02-28T11:04:18;10.55;;;9.05;;
13222;SDS011;6676;45.192;5.722;2023-02-28T11:07:20;11.20;;;9.45;;
13222;SDS011;6676;45.192;5.722;2023-02-28T11:10:25;10.58;;;9.48;;
13222;SDS011;6676;45.192;5.722;2023-02-28T11:13:19;11.65;;;9.08;;
13222;SDS011;6676;45.192;5.722;2023-02-28T11:16:13;9.60;;;8.48;;
13222;SDS011;6676;45.192;5.722;2023-02-28T11:19:06;10.53;;;8.63;;
13222;SDS011;6676;45.192;5.722;2023-02-28T11:22:05;11.90;;;9.08;;
13222;SDS011;6676;45.192;5.722;2023-02-28T11:25:16;12.78;;;8.93;;
13222;SDS011;6676;45.192;5.722;2023-02-28T11:28:22;10.60;;;8.48;;
13222;SDS011;6676;45.192;5.722;2023-02-28T11:31:17;10.03;;;7.97;;
13222;SDS011;6676;45.192;5.722;2023-02-28T11:34:22;9.18;;;8.28;;
13222;SDS011;6676;45.192;5.722;2023-02-28T11:37:17;11.20;;;8.63;;
13222;SDS011;6676;45.192;5.722;2023-02-28T11:40:13;14.75;;;8.73;;
13222;SDS011;6676;45.192;5.722;2023-02-28T11:43:13;11.03;;;8.85;;
13222;SDS011;6676;45.192;5.722;2023-02-28T11:46:17;10.70;;;8.88;;
13222;SDS011;6676;45.192;5.722;2023-02-28T11:49:16;10.95;;;8.10;;
13222;SDS011;6676;45.192;5.722;2023-02-28T11:52:16;10.10;;;7.95;;
13222;SDS011;6676;45.192;5.722;2023-02-28T11:55:17;11.25;;;9.00;;
13222;SDS011;6676;45.192;5.722;2023-02-28T11:58:16;12.05;;;8.58;;
13222;SDS011;6676;45.192;5.722;2023-02-28T12:01:24;9.60;;;8.33;;
13222;SDS011;6676;45.192;5.722;2023-02-28T12:04:24;9.83;;;8.40;;
13222;SDS011;6676;45.192;5.722;2023-02-28T12:07:18;12.93;;;8.33;;
13222;SDS011;6676;45.192;5.722;2023-02-28T12:10:17;10.43;;;8.65;;
13222;SDS011;6676;45.192;5.722;2023-02-28T12:13:15;12.47;;;9.00;;
13222;SDS011;6676;45.192;5.722;2023-02-28T12:16:29;10.98;;;8.85;;
13222;SDS011;6676;45.192;5.722;2023-02-28T12:19:41;11.80;;;8.95;;
13222;SDS011;6676;45.192;5.722;2023-02-28T12:22:36;10.53;;;8.23;;
13222;SDS011;6676;45.192;5.722;2023-02-28T12:25:52;10.55;;;9.00;;
13222;SDS011;6676;45.192;5.722;2023-02-28T12:28:53;11.10;;;8.55;;
13222;SDS011;6676;45.192;5.722;2023-02-28T12:31:49;9.03;;;7.78;;
13222;SDS011;6676;45.192;5.722;2023-02-28T12:34:44;10.90;;;8.03;;
13222;SDS011;6676;45.192;5.722;2023-02-28T12:37:40;11.63;;;8.58;;
13222;SDS011;6676;45.192;5.722;2023-02-28T12:40:40;10.72;;;8.65;;
13222;SDS011;6676;45.192;5.722;2023-02-28T12:43:36;11.50;;;8.23;;
13222;SDS011;6676;45.192;5.722;2023-02-28T12:46:30;10.00;;;8.15;;
13222;SDS011;6676;45.192;5.722;2023-02-28T12:49:25;11.22;;;8.83;;
13222;SDS011;6676;45.192;5.722;2023-02-28T12:52:23;12.68;;;7.87;;
13222;SDS011;6676;45.192;5.722;2023-02-28T12:55:17;11.30;;;7.95;;
13222;SDS011;6676;45.192;5.722;2023-02-28T12:58:17;11.17;;;9.03;;
13222;SDS011;6676;45.192;5.722;2023-02-28T13:01:20;11.90;;;9.08;;
13222;SDS011;6676;45.192;5.722;2023-02-28T13:04:28;9.38;;;7.45;;
13222;SDS011;6676;45.192;5.722;2023-02-28T13:10:45;11.20;;;7.85;;
13222;SDS011;6676;45.192;5.722;2023-02-28T13:13:59;10.20;;;8.75;;
13222;SDS011;6676;45.192;5.722;2023-02-28T13:16:58;9.15;;;7.78;;
13222;SDS011;6676;45.192;5.722;2023-02-28T13:19:56;9.30;;;7.95;;
13222;SDS011;6676;45.192;5.722;2023-02-28T13:22:55;10.93;;;8.38;;
13222;SDS011;6676;45.192;5.722;2023-02-28T13:25:52;11.48;;;8.75;;
13222;SDS011;6676;45.192;5.722;2023-02-28T13:29:02;9.90;;;7.60;;
13222;SDS011;6676;45.192;5.722;2023-02-28T13:39:00;8.98;;;7.22;;
13222;SDS011;6676;45.192;5.722;2023-02-28T13:42:31;10.10;;;7.80;;
13222;SDS011;6676;45.192;5.722;2023-02-28T13:45:27;9.70;;;7.85;;
13222;SDS011;6676;45.192;5.722;2023-02-28T13:48:25;10.03;;;7.05;;
13222;SDS011;6676;45.192;5.722;2023-02-28T13:56:44;10.10;;;7.47;;
13222;SDS011;6676;45.192;5.722;2023-02-28T13:59:45;9.48;;;7.58;;
13222;SDS011;6676;45.192;5.722;2023-02-28T14:03:13;8.28;;;6.22;;
13222;SDS011;6676;45.192;5.722;2023-02-28T14:06:23;11.10;;;7.65;;
13222;SDS011;6676;45.192;5.722;2023-02-28T14:09:21;12.47;;;7.72;;
13222;SDS011;6676;45.192;5.722;2023-02-28T14:15:56;8.20;;;6.87;;
13222;SDS011;6676;45.192;5.722;2023-02-28T14:18:49;9.88;;;7.00;;
13222;SDS011;6676;45.192;5.722;2023-02-28T14:21:46;9.98;;;7.40;;
13222;SDS011;6676;45.192;5.722;2023-02-28T14:25:36;11.95;;;7.28;;
13222;SDS011;6676;45.192;5.722;2023-02-28T14:28:34;11.00;;;7.35;;
13222;SDS011;6676;45.192;5.722;2023-02-28T14:31:40;9.28;;;7.95;;
13222;SDS011;6676;45.192;5.722;2023-02-28T14:34:40;8.98;;;7.70;;
13222;SDS011;6676;45.192;5.722;2023-02-28T14:37:36;8.20;;;7.35;;
13222;SDS011;6676;45.192;5.722;2023-02-28T14:40:25;9.70;;;7.40;;
13222;SDS011;6676;45.192;5.722;2023-02-28T14:43:21;11.10;;;7.12;;
13222;SDS011;6676;45.192;5.722;2023-02-28T14:46:14;10.65;;;7.55;;
13222;SDS011;6676;45.192;5.722;2023-02-28T14:49:12;9.68;;;7.70;;
13222;SDS011;6676;45.192;5.722;2023-02-28T14:52:12;9.63;;;7.28;;
13222;SDS011;6676;45.192;5.722;2023-02-28T15:18:44;8.73;;;7.10;;
13222;SDS011;6676;45.192;5.722;2023-02-28T15:21:39;7.95;;;7.10;;
13222;SDS011;6676;45.192;5.722;2023-02-28T15:24:36;9.88;;;8.05;;
13222;SDS011;6676;45.192;5.722;2023-02-28T15:27:31;9.25;;;6.42;;
13222;SDS011;6676;45.192;5.722;2023-02-28T15:30:26;9.90;;;7.70;;
13222;SDS011;6676;45.192;5.722;2023-02-28T15:33:21;11.25;;;8.05;;
13222;SDS011;6676;45.192;5.722;2023-02-28T15:36:15;9.15;;;8.05;;
13222;SDS011;6676;45.192;5.722;2023-02-28T15:39:19;10.30;;;5.80;;
13222;SDS011;6676;45.192;5.722;2023-02-28T15:42:12;10.58;;;6.53;;
13222;SDS011;6676;45.192;5.722;2023-02-28T15:45:26;8.08;;;7.17;;
13222;SDS011;6676;45.192;5.722;2023-02-28T15:48:21;9.53;;;8.15;;
13222;SDS011;6676;45.192;5.722;2023-02-28T15:51:17;10.65;;;8.30;;
13222;SDS011;6676;45.192;5.722;2023-02-28T15:54:12;8.50;;;6.58;;
13222;SDS011;6676;45.192;5.722;2023-02-28T15:57:13;10.75;;;7.03;;
13222;SDS011;6676;45.192;5.722;2023-02-28T16:00:11;8.35;;;7.37;;
13222;SDS011;6676;45.192;5.722;2023-02-28T16:03:23;9.77;;;8.37;;
13222;SDS011;6676;45.192;5.722;2023-02-28T16:06:35;12.17;;;8.07;;
13222;SDS011;6676;45.192;5.722;2023-02-28T16:09:30;9.80;;;6.45;;
13222;SDS011;6676;45.192;5.722;2023-02-28T16:12:26;9.98;;;7.80;;
13222;SDS011;6676;45.192;5.722;2023-02-28T16:15:19;10.38;;;7.47;;
13222;SDS011;6676;45.192;5.722;2023-02-28T16:18:14;9.43;;;8.40;;
13222;SDS011;6676;45.192;5.722;2023-02-28T16:21:05;9.13;;;7.55;;
13222;SDS011;6676;45.192;5.722;2023-02-28T16:23:58;11.50;;;7.85;;
13222;SDS011;6676;45.192;5.722;2023-02-28T16:26:50;11.40;;;8.23;;
13222;SDS011;6676;45.192;5.722;2023-02-28T16:29:44;9.35;;;6.15;;
13222;SDS011;6676;45.192;5.722;2023-02-28T16:32:37;10.25;;;6.83;;
13222;SDS011;6676;45.192;5.722;2023-02-28T16:35:28;10.45;;;7.22;;
13222;SDS011;6676;45.192;5.722;2023-02-28T16:38:20;9.63;;;6.95;;
13222;SDS011;6676;45.192;5.722;2023-02-28T16:41:14;9.65;;;8.50;;
13222;SDS011;6676;45.192;5.722;2023-02-28T16:44:10;11.53;;;8.93;;
13222;SDS011;6676;45.192;5.722;2023-02-28T16:47:03;8.75;;;7.83;;
13222;SDS011;6676;45.192;5.722;2023-02-28T16:49:55;9.88;;;7.08;;
13222;SDS011;6676;45.192;5.722;2023-02-28T16:52:47;8.33;;;6.08;;
13222;SDS011;6676;45.192;5.722;2023-02-28T16:55:40;8.68;;;6.22;;
13222;SDS011;6676;45.192;5.722;2023-02-28T16:58:32;9.75;;;7.17;;
13222;SDS011;6676;45.192;5.722;2023-02-28T17:01:24;14.05;;;8.45;;
13222;SDS011;6676;45.192;5.722;2023-02-28T17:04:18;8.58;;;6.92;;
13222;SDS011;6676;45.192;5.722;2023-02-28T17:07:09;9.13;;;8.08;;
13222;SDS011;6676;45.192;5.722;2023-02-28T17:10:09;8.43;;;5.90;;
13222;SDS011;6676;45.192;5.722;2023-02-28T17:13:04;10.38;;;8.63;;
13222;SDS011;6676;45.192;5.722;2023-02-28T17:16:00;10.68;;;7.28;;
13222;SDS011;6676;45.192;5.722;2023-02-28T17:18:56;8.98;;;7.95;;
13222;SDS011;6676;45.192;5.722;2023-02-28T17:21:49;9.85;;;8.10;;
13222;SDS011;6676;45.192;5.722;2023-02-28T17:24:41;8.53;;;6.60;;
13222;SDS011;6676;45.192;5.722;2023-02-28T17:27:37;8.10;;;6.03;;
13222;SDS011;6676;45.192;5.722;2023-02-28T17:30:29;8.50;;;7.08;;
13222;SDS011;6676;45.192;5.722;2023-02-28T17:33:23;9.28;;;7.40;;
13222;SDS011;6676;45.192;5.722;2023-02-28T17:36:16;7.05;;;5.17;;
13222;SDS011;6676;45.192;5.722;2023-02-28T17:39:13;10.53;;;8.43;;
13222;SDS011;6676;45.192;5.722;2023-02-28T17:42:08;8.13;;;5.87;;
13222;SDS011;6676;45.192;5.722;2023-02-28T17:45:00;13.13;;;5.78;;
13222;SDS011;6676;45.192;5.722;2023-02-28T17:47:52;11.03;;;7.85;;
13222;SDS011;6676;45.192;5.722;2023-02-28T17:50:43;9.75;;;7.20;;
13222;SDS011;6676;45.192;5.722;2023-02-28T17:53:37;10.85;;;8.58;;
13222;SDS011;6676;45.192;5.722;2023-02-28T17:56:29;8.40;;;6.62;;
13222;SDS011;6676;45.192;5.722;2023-02-28T17:59:21;10.65;;;8.05;;
13222;SDS011;6676;45.192;5.722;2023-02-28T18:02:13;11.80;;;8.50;;
13222;SDS011;6676;45.192;5.722;2023-02-28T18:05:06;12.68;;;9.20;;
13222;SDS011;6676;45.192;5.722;2023-02-28T18:07:59;7.75;;;5.40;;
13222;SDS011;6676;45.192;5.722;2023-02-28T18:10:50;9.33;;;7.42;;
13222;SDS011;6676;45.192;5.722;2023-02-28T18:13:42;7.80;;;7.00;;
13222;SDS011;6676;45.192;5.722;2023-02-28T18:16:35;11.78;;;7.97;;
13222;SDS011;6676;45.192;5.722;2023-02-28T18:19:27;11.50;;;8.83;;
13222;SDS011;6676;45.192;5.722;2023-02-28T18:22:19;8.55;;;6.72;;
13222;SDS011;6676;45.192;5.722;2023-02-28T18:25:11;12.47;;;8.55;;
13222;SDS011;6676;45.192;5.722;2023-02-28T18:28:04;10.18;;;7.97;;
13222;SDS011;6676;45.192;5.722;2023-02-28T18:30:56;10.18;;;7.65;;
13222;SDS011;6676;45.192;5.722;2023-02-28T18:33:50;10.08;;;7.95;;
13222;SDS011;6676;45.192;5.722;2023-02-28T18:36:42;11.45;;;7.83;;
13222;SDS011;6676;45.192;5.722;2023-02-28T18:39:34;11.75;;;8.13;;
13222;SDS011;6676;45.192;5.722;2023-02-28T18:42:29;7.33;;;5.75;;
13222;SDS011;6676;45.192;5.722;2023-02-28T18:45:21;9.28;;;6.62;;